Terminal Aerodrome Forecast
Issued by NWS Buffalo, NY

Home | Current Version | Previous Version | Text Only | Print | Product List | Glossary On
Versions: 1 2 3 4 5 6 7 8 9 10 11 12 13 14 15 16 17 18 19 20 21 22 23 24 25
599
FTUS41 KBUF 201121
TAFROC
TAF
KROC 201121Z 2012/2112 11007KT P6SM OVC015
     FM201400 11007KT P6SM SCT015 BKN130
     FM201800 15007KT P6SM BKN120
     FM202200 15005KT 6SM -RA OVC035
     FM210200 18006KT P6SM VCSH OVC030
     FM210400 19006KT 6SM -DZ BR OVC020
     FM210800 23007KT 4SM -DZ BR OVC012=

USA.gov is the U.S. government's official web portal to all federal, state and local government web resources and services.